Aérodrome :
LOGIN :

S'inscrire | Disclaimer

   EN    FR    IT 

 










Légende :    VFR   VFR Marginal   IFR   IFR Intensif   IFR Très Intensif
Visi : 
Plafond : 
>= 8 km
>= 3000ft
5 à 8 km
1000 à 3000 ft
1500m à 5 km
500 à 1000 ft
800 à 1500m
200 à 500 ft
< 800m
< 200 ft
Symboles :   Orages  Brouillard  Fortes neiges  Fortes précipitations  Vent > 20 kt
SIGMETs :   Divers  Orages  Givrage  Turbulence  Onde Orograph.  Cendres Volcan.






- Altitude de l'aérodrome : 86 ft
- Code IATA : HAU


ENHD - Haugesund

DERNIER METAR :
  • 171750Z 19010KT 9999 BKN007 BKN009 07/06 Q1004

METARs EXPIRÉS :
  • 171720Z 17010KT 9000 FEW009 BKN014 BKN074 07/06 Q1004
  • 171650Z 15008KT 8000 SCT007 BKN016 07/06 Q1004
  • 171620Z 17009KT 9999 SCT007 BKN010 07/06 Q1004
  • 171550Z 16008KT 9999 FEW007 SCT037 BKN055 07/06 Q1004
  • 171520Z 17009KT 8000 SCT006 07/06 Q1004

TAF TAF ENHD
Valide du 17 à 18h jusqu'au 17 à 21h UTC


171700Z 1718/1721 18010KT 9999 SCT007 BKN012
TEMPO 1718/1721 4000 SHRA BR BKN006 SCT015CB



MET'MAP, la Météo Aéronautique d'un coup d'oeil ! - Copyright ORBIFLY Décembre 2007 - Disclaimer

ORBIFLY MET'MAP TEAM :

Programmation & Développement : Alexandra Zaïnal
Sur une idée originale de : Baudouin d'Aumeries
Assistance à la programmation : Marc-Olivier Méhu
Soutien technique & logistique : Manuel Goepfert

Contact : metmap@orbifly.com




SOURCES & CREDITS :

   NOAA